This is the latest recevied weather packets stored in our database for station/object DM3FAM-13. If no packets are shown the sender has not sent any weather packets the latest 10 day(s).
| Time | Temp. | Humidity | Pressure | Rain* | Wind** | Luminosity | Snow |
|---|---|---|---|---|---|---|---|
| 1777536630 | 14.44° C | 31% | 1022.4 hPa | 0 mm | - | 34 W/m² | - |
| 1777536031 | 14.44° C | 32% | 1022.6 hPa | 0 mm | - | 33 W/m² | - |
| 1777534830 | 13.33° C | 32% | 1022.4 hPa | 0 mm | - | 31 W/m² | - |
| 1777534231 | 13.33° C | 32% | 1022.4 hPa | 0 mm | - | 31 W/m² | - |
| 1777533630 | 12.78° C | 32% | 1022.4 hPa | 0 mm | - | 30 W/m² | - |
| 1777533030 | 12.78° C | 33% | 1022.5 hPa | 0 mm | - | 29 W/m² | - |
| 1777532431 | 12.22° C | 34% | 1022.6 hPa | 0 mm | - | 29 W/m² | - |
| 1777531231 | 9.44° C | 52% | 1022.6 hPa | 0 mm | - | 27 W/m² | - |
| 1777530631 | 7.78° C | 56% | 1022.5 hPa | 0 mm | - | 26 W/m² | - |
| 1777530030 | 6.67° C | 60% | 1022.6 hPa | 0 mm | - | 25 W/m² | - |
| 1777529431 | 6.11° C | 62% | 1022.4 hPa | 0 mm | - | 24 W/m² | - |
| 1777528831 | 6.11° C | 64% | 1022.4 hPa | 0 mm | - | 22 W/m² | - |
| 1777528231 | 6.11° C | 62% | 1022.3 hPa | 0 mm | - | 21 W/m² | - |
| 1777527631 | 5.56° C | 62% | 1022.2 hPa | 0 mm | - | 20 W/m² | - |
| 1777527031 | 6.11° C | 60% | 1022.2 hPa | 0 mm | - | 18 W/m² | - |
| 1777526430 | 6.11° C | 59% | 1022.3 hPa | 0 mm | - | 17 W/m² | - |
| 1777525830 | 5.56° C | 59% | 1022.2 hPa | 0 mm | - | 15 W/m² | - |
| 1777525230 | 6.11° C | 57% | 1022.1 hPa | 0 mm | - | 13 W/m² | - |
| 1777524630 | 5.56° C | 58% | 1022 hPa | 0 mm | - | 11 W/m² | - |
| 1777524030 | 5.56° C | 59% | 1022 hPa | 0 mm | - | 9 W/m² | - |
| 1777523430 | 5° C | 61% | 1022.1 hPa | 0 mm | - | 6 W/m² | - |
| 1777522830 | 4.44° C | 62% | 1022 hPa | 0 mm | - | 3 W/m² | - |
| 1777522229 | 4.44° C | 64% | 1021.9 hPa | 0 mm | - | 1 W/m² | - |
| 1777521630 | 4.44° C | 62% | 1021.9 hPa | 0 mm | - | 0 W/m² | - |
| 1777521031 | 6.11° C | 56% | 1021.9 hPa | 0 mm | - | 0 W/m² | - |
* Rain latest hour (hover to see other rain measurements)
** Current wind speed in m/s (hover to see current wind gust speed)